createdAt,value
2016-08-01T00:00:09.493Z,16.1
2016-08-01T00:00:19.488Z,16.1
2016-08-01T00:00:29.486Z,16.1
2016-08-01T00:00:39.477Z,16.2
2016-08-01T00:00:49.476Z,16.2
2016-08-01T00:00:59.467Z,16.2
2016-08-01T00:01:09.462Z,16.2
2016-08-01T00:01:20.188Z,16.2
2016-08-01T00:01:30.186Z,16.2
2016-08-01T00:01:39.449Z,16.2
2016-08-01T00:01:50.174Z,16.2
2016-08-01T00:01:59.441Z,16.2
2016-08-01T00:02:09.437Z,16.2
2016-08-01T00:02:19.429Z,16.2
2016-08-01T00:02:29.424Z,16.2
2016-08-01T00:02:39.420Z,16.2
2016-08-01T00:02:49.416Z,16.2
2016-08-01T00:02:59.412Z,16.2
2016-08-01T00:03:09.407Z,16.2
2016-08-01T00:03:19.401Z,16.2
2016-08-01T00:03:29.395Z,16.2
2016-08-01T00:03:39.393Z,16.2
2016-08-01T00:03:49.390Z,16.2
2016-08-01T00:03:59.383Z,16.2
2016-08-01T00:04:09.378Z,16.2
2016-08-01T00:04:19.372Z,16.2
2016-08-01T00:04:29.366Z,16.2
2016-08-01T00:04:39.362Z,16.2
2016-08-01T00:04:49.358Z,16.2
2016-08-01T00:04:59.351Z,16.2
2016-08-01T00:05:09.348Z,16.2
2016-08-01T00:05:19.349Z,16.2
2016-08-01T00:05:29.336Z,16.2
2016-08-01T00:05:39.332Z,16.2
2016-08-01T00:05:49.328Z,16.2
2016-08-01T00:05:59.323Z,16.2
2016-08-01T00:06:09.316Z,16.2
2016-08-01T00:06:19.312Z,16.2
2016-08-01T00:06:29.308Z,16.1
2016-08-01T00:06:39.305Z,16.1
2016-08-01T00:06:49.301Z,16.1
2016-08-01T00:06:59.291Z,16.1
2016-08-01T00:07:09.291Z,16.1
2016-08-01T00:07:19.287Z,16.1
2016-08-01T00:07:29.279Z,16.1
2016-08-01T00:07:39.273Z,16.1
2016-08-01T00:07:49.274Z,16.1
2016-08-01T00:07:59.265Z,16.1
2016-08-01T00:08:09.261Z,16.1
2016-08-01T00:08:19.254Z,16.1
2016-08-01T00:08:29.250Z,16.1
2016-08-01T00:08:39.246Z,16.1
2016-08-01T00:08:49.239Z,16.1
2016-08-01T00:08:59.235Z,16.1
2016-08-01T00:09:09.963Z,16.1
2016-08-01T00:09:19.225Z,16.1
2016-08-01T00:09:29.222Z,16.1
2016-08-01T00:09:39.217Z,16.1
2016-08-01T00:09:49.210Z,16.1
2016-08-01T00:09:59.210Z,16.1
2016-08-01T00:10:09.202Z,16.1
2016-08-01T00:10:19.196Z,16.1
2016-08-01T00:10:29.194Z,16
2016-08-01T00:10:39.189Z,16.1
2016-08-01T00:10:49.183Z,16
2016-08-01T00:10:59.178Z,16
2016-08-01T00:11:09.173Z,16
2016-08-01T00:11:19.168Z,16
2016-08-01T00:11:29.162Z,16
2016-08-01T00:11:39.156Z,16
2016-08-01T00:11:49.152Z,16
2016-08-01T00:11:59.148Z,16
2016-08-01T00:12:09.143Z,16
2016-08-01T00:12:19.137Z,16
2016-08-01T00:12:29.135Z,15.9
2016-08-01T00:12:39.130Z,15.9
2016-08-01T00:12:49.124Z,15.9
2016-08-01T00:12:59.119Z,15.9
2016-08-01T00:13:09.115Z,15.9
2016-08-01T00:13:19.109Z,15.9
2016-08-01T00:13:29.105Z,15.9
2016-08-01T00:13:39.098Z,16
2016-08-01T00:13:49.095Z,16
2016-08-01T00:13:59.090Z,16
2016-08-01T00:14:09.084Z,15.9
2016-08-01T00:14:19.081Z,16
2016-08-01T00:14:29.076Z,16
2016-08-01T00:14:39.069Z,16
2016-08-01T00:14:49.068Z,16
2016-08-01T00:14:59.060Z,16
2016-08-01T00:15:09.056Z,16
2016-08-01T00:15:19.051Z,16
2016-08-01T00:15:29.047Z,16
2016-08-01T00:15:39.041Z,16
2016-08-01T00:15:49.036Z,16
2016-08-01T00:15:59.031Z,16
2016-08-01T00:16:09.025Z,16
2016-08-01T00:16:19.023Z,16
2016-08-01T00:16:29.016Z,16
2016-08-01T00:16:39.014Z,16
2016-08-01T00:16:49.005Z,16
2016-08-01T00:16:59.001Z,16
2016-08-01T00:17:08.997Z,16
2016-08-01T00:17:18.991Z,16
2016-08-01T00:17:28.988Z,16
2016-08-01T00:17:38.983Z,16
2016-08-01T00:17:48.979Z,15.9
2016-08-01T00:17:58.976Z,16
2016-08-01T00:18:08.969Z,16
2016-08-01T00:18:18.963Z,16
2016-08-01T00:18:28.959Z,15.9
2016-08-01T00:18:38.953Z,16
2016-08-01T00:18:48.949Z,16
2016-08-01T00:18:58.945Z,16
2016-08-01T00:19:08.939Z,16
2016-08-01T00:19:18.935Z,16
2016-08-01T00:19:28.929Z,16
2016-08-01T00:19:38.925Z,16
2016-08-01T00:19:48.919Z,15.9
2016-08-01T00:19:58.917Z,15.9
2016-08-01T00:20:08.909Z,15.9
2016-08-01T00:20:18.905Z,15.9
2016-08-01T00:20:28.901Z,15.9
2016-08-01T00:20:38.893Z,15.9
2016-08-01T00:20:49.620Z,15.9
2016-08-01T00:20:58.886Z,15.9
2016-08-01T00:21:08.892Z,15.9
2016-08-01T00:21:18.876Z,15.9
2016-08-01T00:21:28.877Z,15.9
2016-08-01T00:21:38.865Z,15.9
2016-08-01T00:21:48.860Z,15.9
2016-08-01T00:21:58.857Z,15.9
2016-08-01T00:22:08.849Z,15.9
2016-08-01T00:22:18.848Z,15.9
2016-08-01T00:22:28.843Z,15.9
2016-08-01T00:22:38.836Z,15.9
2016-08-01T00:22:48.832Z,15.9
2016-08-01T00:22:58.827Z,15.9
2016-08-01T00:23:08.820Z,15.9
2016-08-01T00:23:18.817Z,15.9
2016-08-01T00:23:28.813Z,15.8
2016-08-01T00:23:38.807Z,15.8
2016-08-01T00:23:48.804Z,15.8
2016-08-01T00:23:58.796Z,15.9
2016-08-01T00:24:08.798Z,15.9
2016-08-01T00:24:18.788Z,15.8
2016-08-01T00:24:28.786Z,15.8
2016-08-01T00:24:38.779Z,15.8
2016-08-01T00:24:48.775Z,15.8
2016-08-01T00:24:58.768Z,15.8
2016-08-01T00:25:08.764Z,15.8
2016-08-01T00:25:18.759Z,15.8
2016-08-01T00:25:28.755Z,15.8
2016-08-01T00:25:38.748Z,15.8
2016-08-01T00:25:48.755Z,15.8
2016-08-01T00:25:58.738Z,15.8
2016-08-01T00:26:08.732Z,15.8
2016-08-01T00:26:18.729Z,15.8
2016-08-01T00:26:28.724Z,15.8
2016-08-01T00:26:38.719Z,15.8
2016-08-01T00:26:48.716Z,15.8
2016-08-01T00:26:58.709Z,15.8
2016-08-01T00:27:08.703Z,15.8
2016-08-01T00:27:18.702Z,15.8
2016-08-01T00:27:28.694Z,15.8
2016-08-01T00:27:38.691Z,15.8
2016-08-01T00:27:48.687Z,15.8
2016-08-01T00:27:58.684Z,15.8
2016-08-01T00:28:08.678Z,15.8
2016-08-01T00:28:18.669Z,15.8
2016-08-01T00:28:28.667Z,15.8
2016-08-01T00:28:38.663Z,15.8
2016-08-01T00:28:48.657Z,15.8
2016-08-01T00:28:59.382Z,15.8
2016-08-01T00:29:08.647Z,15.8
2016-08-01T00:29:18.642Z,15.8
2016-08-01T00:29:28.640Z,15.8
2016-08-01T00:29:38.630Z,15.8
2016-08-01T00:29:48.631Z,15.8
2016-08-01T00:29:58.624Z,15.8
2016-08-01T00:30:08.619Z,15.8
2016-08-01T00:30:18.613Z,15.8
2016-08-01T00:30:28.609Z,15.8
2016-08-01T00:30:38.602Z,15.8
2016-08-01T00:30:48.598Z,15.8
2016-08-01T00:30:58.589Z,15.8
2016-08-01T00:31:08.588Z,15.8
2016-08-01T00:31:18.584Z,15.8
2016-08-01T00:31:28.578Z,15.8
2016-08-01T00:31:38.572Z,15.8
2016-08-01T00:31:48.570Z,15.8
2016-08-01T00:31:58.564Z,15.8
2016-08-01T00:32:08.560Z,15.8
2016-08-01T00:32:18.554Z,15.8
2016-08-01T00:32:28.549Z,15.8
2016-08-01T00:32:38.544Z,15.8
2016-08-01T00:32:48.537Z,15.8
2016-08-01T00:32:58.535Z,15.8
2016-08-01T00:33:08.528Z,15.8
2016-08-01T00:33:18.522Z,15.8
2016-08-01T00:33:28.522Z,15.8
2016-08-01T00:33:38.514Z,15.8
2016-08-01T00:33:48.508Z,15.8
2016-08-01T00:33:58.505Z,15.8
2016-08-01T00:34:08.501Z,15.8
2016-08-01T00:34:18.497Z,15.7
2016-08-01T00:34:28.492Z,15.8
2016-08-01T00:34:38.484Z,15.8
2016-08-01T00:34:48.480Z,15.8
2016-08-01T00:34:58.478Z,15.8
2016-08-01T00:35:08.472Z,15.8
2016-08-01T00:35:18.468Z,15.8
2016-08-01T00:35:28.461Z,15.8
2016-08-01T00:35:38.457Z,15.8
2016-08-01T00:35:48.451Z,15.8
2016-08-01T00:35:58.444Z,15.8
2016-08-01T00:36:08.445Z,15.8
2016-08-01T00:36:18.437Z,15.8
2016-08-01T00:36:28.433Z,15.8
2016-08-01T00:36:38.425Z,15.8
2016-08-01T00:36:48.420Z,15.8
2016-08-01T00:36:58.418Z,15.8
2016-08-01T00:37:08.413Z,15.8
2016-08-01T00:37:18.407Z,15.8
2016-08-01T00:37:28.403Z,15.8
2016-08-01T00:37:38.395Z,15.8
2016-08-01T00:37:48.391Z,15.8
2016-08-01T00:37:58.388Z,15.8
2016-08-01T00:38:08.385Z,15.8
2016-08-01T00:38:18.379Z,15.8
2016-08-01T00:38:28.372Z,15.8
2016-08-01T00:38:38.368Z,15.8
2016-08-01T00:38:48.364Z,15.8
2016-08-01T00:38:58.357Z,15.8
2016-08-01T00:39:08.352Z,15.8
2016-08-01T00:39:18.347Z,15.8
2016-08-01T00:39:28.343Z,15.8
2016-08-01T00:39:39.070Z,15.8
2016-08-01T00:39:48.334Z,15.8
2016-08-01T00:39:58.330Z,15.8
2016-08-01T00:40:08.325Z,15.8
2016-08-01T00:40:18.318Z,15.8
2016-08-01T00:40:28.317Z,15.8
2016-08-01T00:40:38.309Z,15.8
2016-08-01T00:40:48.304Z,15.8
2016-08-01T00:40:58.298Z,15.8
2016-08-01T00:41:08.298Z,15.8
2016-08-01T00:41:18.289Z,15.8
2016-08-01T00:41:28.284Z,15.8
2016-08-01T00:41:38.281Z,15.8
2016-08-01T00:41:48.275Z,15.8
2016-08-01T00:41:58.270Z,15.8
2016-08-01T00:42:08.266Z,15.8
2016-08-01T00:42:18.259Z,15.8
2016-08-01T00:42:28.259Z,15.8
2016-08-01T00:42:38.251Z,15.8
2016-08-01T00:42:48.246Z,15.8
2016-08-01T00:42:58.241Z,15.8
2016-08-01T00:43:08.236Z,15.8
2016-08-01T00:43:18.230Z,15.8
2016-08-01T00:43:28.227Z,15.8
2016-08-01T00:43:38.221Z,15.8
2016-08-01T00:43:48.217Z,15.8
2016-08-01T00:43:58.218Z,15.8
2016-08-01T00:44:08.209Z,15.8
2016-08-01T00:44:18.202Z,15.8
2016-08-01T00:44:28.929Z,15.8
2016-08-01T00:44:38.193Z,15.8
2016-08-01T00:44:48.187Z,15.8
2016-08-01T00:44:58.184Z,15.8
2016-08-01T00:45:08.179Z,15.8
2016-08-01T00:45:18.174Z,15.8
2016-08-01T00:45:28.167Z,15.8
2016-08-01T00:45:38.162Z,15.8
2016-08-01T00:45:48.157Z,15.8
2016-08-01T00:45:58.154Z,15.8
2016-08-01T00:46:08.145Z,15.8
2016-08-01T00:46:18.140Z,15.8
2016-08-01T00:46:28.139Z,15.8
2016-08-01T00:46:38.133Z,15.8
2016-08-01T00:46:48.129Z,15.8
2016-08-01T00:46:58.124Z,15.8
2016-08-01T00:47:08.122Z,15.8
2016-08-01T00:47:18.118Z,15.7
2016-08-01T00:47:28.110Z,15.8
2016-08-01T00:47:38.104Z,15.8
2016-08-01T00:47:48.102Z,15.8
2016-08-01T00:47:58.095Z,15.8
2016-08-01T00:48:08.091Z,15.8
2016-08-01T00:48:18.084Z,15.8
2016-08-01T00:48:28.080Z,15.8
2016-08-01T00:48:38.076Z,15.8
2016-08-01T00:48:48.068Z,15.9
2016-08-01T00:48:58.065Z,15.9
2016-08-01T00:49:08.060Z,15.9
2016-08-01T00:49:18.055Z,15.8
2016-08-01T00:49:28.049Z,15.8
2016-08-01T00:49:38.047Z,15.9
2016-08-01T00:49:48.042Z,15.9
2016-08-01T00:49:58.765Z,15.8
2016-08-01T00:50:08.032Z,15.8
2016-08-01T00:50:18.026Z,15.8
2016-08-01T00:50:28.021Z,15.8
2016-08-01T00:50:38.018Z,15.8
2016-08-01T00:50:48.014Z,15.8
2016-08-01T00:50:58.009Z,15.9
2016-08-01T00:51:08.000Z,15.8
2016-08-01T00:51:17.996Z,15.8
2016-08-01T00:51:27.994Z,15.8
2016-08-01T00:51:37.988Z,15.8
2016-08-01T00:51:47.989Z,15.8
2016-08-01T00:51:57.978Z,15.8
2016-08-01T00:52:07.974Z,15.8
2016-08-01T00:52:17.968Z,15.8
2016-08-01T00:52:27.962Z,15.9
2016-08-01T00:52:37.960Z,15.9
2016-08-01T00:52:47.954Z,15.9
2016-08-01T00:52:57.949Z,15.9
2016-08-01T00:53:07.943Z,15.9
2016-08-01T00:53:17.941Z,15.9
2016-08-01T00:53:27.935Z,15.9
2016-08-01T00:53:37.928Z,15.9
2016-08-01T00:53:47.922Z,15.9
2016-08-01T00:53:57.920Z,15.9
2016-08-01T00:54:07.911Z,15.9
2016-08-01T00:54:17.910Z,15.9
2016-08-01T00:54:27.904Z,15.9
2016-08-01T00:54:37.900Z,15.9
2016-08-01T00:54:47.894Z,15.9
2016-08-01T00:54:57.888Z,15.9
2016-08-01T00:55:07.883Z,15.9
2016-08-01T00:55:17.880Z,15.9
2016-08-01T00:55:27.872Z,15.9
2016-08-01T00:55:37.871Z,16
2016-08-01T00:55:47.865Z,15.9
2016-08-01T00:55:57.860Z,16
2016-08-01T00:56:07.858Z,16
2016-08-01T00:56:17.850Z,16
2016-08-01T00:56:27.845Z,16
2016-08-01T00:56:37.840Z,16
2016-08-01T00:56:47.834Z,16
2016-08-01T00:56:57.832Z,16
2016-08-01T00:57:07.824Z,16
2016-08-01T00:57:17.820Z,16
2016-08-01T00:57:27.818Z,16
2016-08-01T00:57:37.809Z,16
2016-08-01T00:57:47.806Z,16
2016-08-01T00:57:57.804Z,15.9
2016-08-01T00:58:07.796Z,15.9
2016-08-01T00:58:17.792Z,15.9
2016-08-01T00:58:27.786Z,15.9
2016-08-01T00:58:37.782Z,15.9
2016-08-01T00:58:47.776Z,15.9
2016-08-01T00:58:57.774Z,15.9
2016-08-01T00:59:07.770Z,15.9
2016-08-01T00:59:17.764Z,15.9
2016-08-01T00:59:27.758Z,15.9
2016-08-01T00:59:37.753Z,15.9
2016-08-01T00:59:47.745Z,15.9
2016-08-01T00:59:57.743Z,15.9
2016-08-01T01:00:07.737Z,15.9
2016-08-01T01:00:17.732Z,15.9
2016-08-01T01:00:27.728Z,15.9
2016-08-01T01:00:37.723Z,15.9
2016-08-01T01:00:47.721Z,15.9
2016-08-01T01:00:57.717Z,15.9
2016-08-01T01:01:07.710Z,15.9
2016-08-01T01:01:17.702Z,15.9
2016-08-01T01:01:27.698Z,15.9
2016-08-01T01:01:37.692Z,15.9
2016-08-01T01:01:47.688Z,15.9
2016-08-01T01:01:57.683Z,15.9
2016-08-01T01:02:07.678Z,15.9
2016-08-01T01:02:17.673Z,15.9
2016-08-01T01:02:27.671Z,15.9
2016-08-01T01:02:37.665Z,15.9
2016-08-01T01:02:47.661Z,15.9
2016-08-01T01:02:57.655Z,15.9
2016-08-01T01:03:07.649Z,15.9
2016-08-01T01:03:17.644Z,15.9
2016-08-01T01:03:27.640Z,15.9
2016-08-01T01:03:37.636Z,15.9
2016-08-01T01:03:47.631Z,15.9
2016-08-01T01:03:57.624Z,15.9
2016-08-01T01:04:07.620Z,15.9
2016-08-01T01:04:17.616Z,15.9
2016-08-01T01:04:27.611Z,15.9
2016-08-01T01:04:37.607Z,15.9
2016-08-01T01:04:47.600Z,15.9
2016-08-01T01:04:57.597Z,15.9
2016-08-01T01:05:07.592Z,15.9
2016-08-01T01:05:17.586Z,15.9
2016-08-01T01:05:27.588Z,15.9
2016-08-01T01:05:37.574Z,15.9
2016-08-01T01:05:47.573Z,15.9
2016-08-01T01:05:57.570Z,15.9
2016-08-01T01:06:07.558Z,15.9
2016-08-01T01:06:17.559Z,15.9
2016-08-01T01:06:27.552Z,15.9
2016-08-01T01:06:37.547Z,15.9
2016-08-01T01:06:47.542Z,15.9
2016-08-01T01:06:57.534Z,15.9
2016-08-01T01:07:07.533Z,15.9
2016-08-01T01:07:17.526Z,15.9
2016-08-01T01:07:27.521Z,15.9
2016-08-01T01:07:37.517Z,15.9
2016-08-01T01:07:47.512Z,15.9
2016-08-01T01:07:57.505Z,15.9
2016-08-01T01:08:07.502Z,15.9
2016-08-01T01:08:17.498Z,15.9
2016-08-01T01:08:27.491Z,15.9
2016-08-01T01:08:37.490Z,15.9
2016-08-01T01:08:47.485Z,15.9
2016-08-01T01:08:57.480Z,15.9
2016-08-01T01:09:07.472Z,15.9
2016-08-01T01:09:17.467Z,15.9
2016-08-01T01:09:27.463Z,15.9
2016-08-01T01:09:38.187Z,15.9
2016-08-01T01:09:47.453Z,15.9
2016-08-01T01:09:57.447Z,15.9
2016-08-01T01:10:07.444Z,15.9
2016-08-01T01:10:17.438Z,15.9
2016-08-01T01:10:27.436Z,15.9
2016-08-01T01:10:37.429Z,15.9
2016-08-01T01:10:47.425Z,15.9
2016-08-01T01:10:57.417Z,15.9
2016-08-01T01:11:07.415Z,15.9
2016-08-01T01:11:17.411Z,15.9
2016-08-01T01:11:27.406Z,15.9
2016-08-01T01:11:37.400Z,15.9
2016-08-01T01:11:47.395Z,15.9
2016-08-01T01:11:57.390Z,15.8
2016-08-01T01:12:07.385Z,15.8
2016-08-01T01:12:17.379Z,15.8
2016-08-01T01:12:28.107Z,15.8
2016-08-01T01:12:37.369Z,15.8
2016-08-01T01:12:47.364Z,15.8
2016-08-01T01:12:57.358Z,15.8
2016-08-01T01:13:07.355Z,15.8
2016-08-01T01:13:17.351Z,15.8
2016-08-01T01:13:27.346Z,15.8
2016-08-01T01:13:37.339Z,15.8
2016-08-01T01:13:47.342Z,15.8
2016-08-01T01:13:57.331Z,15.8
2016-08-01T01:14:07.326Z,15.9
2016-08-01T01:14:17.320Z,15.9
2016-08-01T01:14:27.316Z,15.9
2016-08-01T01:14:37.314Z,15.9
2016-08-01T01:14:47.307Z,15.9
2016-08-01T01:14:57.305Z,15.9
2016-08-01T01:15:07.303Z,15.8
2016-08-01T01:15:17.290Z,15.9
2016-08-01T01:15:27.285Z,15.9
2016-08-01T01:15:37.287Z,15.9
2016-08-01T01:15:48.016Z,15.8
2016-08-01T01:15:57.272Z,15.8
2016-08-01T01:16:07.265Z,15.8
2016-08-01T01:16:17.261Z,15.8
2016-08-01T01:16:27.259Z,15.8
2016-08-01T01:16:37.252Z,15.8
2016-08-01T01:16:47.248Z,15.8
2016-08-01T01:16:57.242Z,15.8
2016-08-01T01:17:07.238Z,15.8
2016-08-01T01:17:17.233Z,15.8
2016-08-01T01:17:27.230Z,15.8
2016-08-01T01:17:37.222Z,15.8
2016-08-01T01:17:47.218Z,15.8
2016-08-01T01:17:57.215Z,15.8
2016-08-01T01:18:07.939Z,15.9
2016-08-01T01:18:17.216Z,15.8
2016-08-01T01:18:27.201Z,15.8
2016-08-01T01:18:37.193Z,15.8
2016-08-01T01:18:47.191Z,15.8
2016-08-01T01:18:57.183Z,15.8
2016-08-01T01:19:07.176Z,15.8
2016-08-01T01:19:17.173Z,15.8
2016-08-01T01:19:27.178Z,15.8
2016-08-01T01:19:37.165Z,15.8
2016-08-01T01:19:47.159Z,15.8
2016-08-01T01:19:57.153Z,15.8
2016-08-01T01:20:07.149Z,15.8
2016-08-01T01:20:17.143Z,15.8
2016-08-01T01:20:27.140Z,15.8
2016-08-01T01:20:37.135Z,15.8
2016-08-01T01:20:47.129Z,15.8
2016-08-01T01:20:57.124Z,15.8
2016-08-01T01:21:07.120Z,15.8
2016-08-01T01:21:17.112Z,15.8
2016-08-01T01:21:27.109Z,15.8
2016-08-01T01:21:37.103Z,15.8
2016-08-01T01:21:47.096Z,15.8
2016-08-01T01:21:57.095Z,15.7
2016-08-01T01:22:07.094Z,15.7
2016-08-01T01:22:17.083Z,15.7
2016-08-01T01:22:27.084Z,15.7
2016-08-01T01:22:37.075Z,15.8
2016-08-01T01:22:47.070Z,15.8
2016-08-01T01:22:57.066Z,15.8
2016-08-01T01:23:07.061Z,15.8
2016-08-01T01:23:17.058Z,15.8
2016-08-01T01:23:27.050Z,15.8
2016-08-01T01:23:37.044Z,15.8
2016-08-01T01:23:47.042Z,15.8
2016-08-01T01:23:57.037Z,15.8
2016-08-01T01:24:07.033Z,15.8
2016-08-01T01:24:17.029Z,15.8
2016-08-01T01:24:27.022Z,15.8
2016-08-01T01:24:37.018Z,15.8
2016-08-01T01:24:47.011Z,15.8
2016-08-01T01:24:57.007Z,15.8
2016-08-01T01:25:07.001Z,15.8
2016-08-01T01:25:16.996Z,15.7
2016-08-01T01:25:26.994Z,15.7
2016-08-01T01:25:36.987Z,15.7
2016-08-01T01:25:46.983Z,15.7
2016-08-01T01:25:56.978Z,15.7
2016-08-01T01:26:06.972Z,15.7
2016-08-01T01:26:16.967Z,15.7
2016-08-01T01:26:26.964Z,15.7
2016-08-01T01:26:36.959Z,15.7
2016-08-01T01:26:46.953Z,15.7
2016-08-01T01:26:56.948Z,15.7
2016-08-01T01:27:06.941Z,15.7
2016-08-01T01:27:16.935Z,15.7
2016-08-01T01:27:26.934Z,15.7
2016-08-01T01:27:36.928Z,15.7
2016-08-01T01:27:46.923Z,15.7
2016-08-01T01:27:56.918Z,15.6
2016-08-01T01:28:06.911Z,15.6
2016-08-01T01:28:16.906Z,15.6
2016-08-01T01:28:26.903Z,15.6
2016-08-01T01:28:36.897Z,15.6
2016-08-01T01:28:46.893Z,15.6
2016-08-01T01:28:56.887Z,15.6
2016-08-01T01:29:06.883Z,15.6
2016-08-01T01:29:16.878Z,15.6
2016-08-01T01:29:26.881Z,15.6
2016-08-01T01:29:36.866Z,15.6
2016-08-01T01:29:46.866Z,15.6
2016-08-01T01:29:56.858Z,15.6
2016-08-01T01:30:06.854Z,15.6
2016-08-01T01:30:16.850Z,15.6
2016-08-01T01:30:26.845Z,15.6
2016-08-01T01:30:36.838Z,15.6
2016-08-01T01:30:46.835Z,15.6
2016-08-01T01:30:56.828Z,15.6
2016-08-01T01:31:06.826Z,15.6
2016-08-01T01:31:16.820Z,15.6
2016-08-01T01:31:26.812Z,15.6
2016-08-01T01:31:36.809Z,15.6
2016-08-01T01:31:46.805Z,15.6
2016-08-01T01:31:56.803Z,15.6
2016-08-01T01:32:06.797Z,15.6
2016-08-01T01:32:16.789Z,15.6
2016-08-01T01:32:27.517Z,15.6
2016-08-01T01:32:36.782Z,15.6
2016-08-01T01:32:46.773Z,15.5
2016-08-01T01:32:56.771Z,15.6
2016-08-01T01:33:06.765Z,15.6
2016-08-01T01:33:16.760Z,15.6
2016-08-01T01:33:26.756Z,15.6
2016-08-01T01:33:36.750Z,15.6
2016-08-01T01:33:46.744Z,15.6
2016-08-01T01:33:56.740Z,15.6
2016-08-01T01:34:06.735Z,15.6
2016-08-01T01:34:16.728Z,15.6
2016-08-01T01:34:26.727Z,15.6
2016-08-01T01:34:36.722Z,15.6
2016-08-01T01:34:46.718Z,15.6
2016-08-01T01:34:56.709Z,15.6
2016-08-01T01:35:06.705Z,15.6
2016-08-01T01:35:16.701Z,15.6
2016-08-01T01:35:26.697Z,15.6
2016-08-01T01:35:36.692Z,15.6
2016-08-01T01:35:46.686Z,15.6
2016-08-01T01:35:56.684Z,15.6
2016-08-01T01:36:06.680Z,15.6
2016-08-01T01:36:16.671Z,15.6
2016-08-01T01:36:26.667Z,15.6
2016-08-01T01:36:36.660Z,15.6
2016-08-01T01:36:46.657Z,15.6
2016-08-01T01:36:56.650Z,15.6
2016-08-01T01:37:06.644Z,15.6
2016-08-01T01:37:16.641Z,15.6
2016-08-01T01:37:26.637Z,15.6
2016-08-01T01:37:36.631Z,15.6
2016-08-01T01:37:46.629Z,15.6
2016-08-01T01:37:56.624Z,15.6
2016-08-01T01:38:06.620Z,15.6
2016-08-01T01:38:16.614Z,15.6
2016-08-01T01:38:26.609Z,15.6
2016-08-01T01:38:37.331Z,15.6
2016-08-01T01:38:46.596Z,15.6
2016-08-01T01:38:56.595Z,15.7
2016-08-01T01:39:06.589Z,15.6
2016-08-01T01:39:16.582Z,15.6
2016-08-01T01:39:26.574Z,15.7
2016-08-01T01:39:36.575Z,15.6
2016-08-01T01:39:46.568Z,15.7
2016-08-01T01:39:56.563Z,15.7
2016-08-01T01:40:06.557Z,15.7
2016-08-01T01:40:16.553Z,15.7
2016-08-01T01:40:26.548Z,15.7
2016-08-01T01:40:36.542Z,15.7
2016-08-01T01:40:46.537Z,15.7
2016-08-01T01:40:56.613Z,15.7
2016-08-01T01:41:06.529Z,15.7
2016-08-01T01:41:16.523Z,15.7
2016-08-01T01:41:26.517Z,15.7
2016-08-01T01:41:36.511Z,15.7
2016-08-01T01:41:46.512Z,15.7
2016-08-01T01:41:56.506Z,15.7
2016-08-01T01:42:06.499Z,15.7
2016-08-01T01:42:16.493Z,15.7
2016-08-01T01:42:26.487Z,15.7
2016-08-01T01:42:36.483Z,15.7
2016-08-01T01:42:46.478Z,15.7
2016-08-01T01:42:56.475Z,15.7
2016-08-01T01:43:06.468Z,15.7
2016-08-01T01:43:16.463Z,15.7
2016-08-01T01:43:26.461Z,15.7
2016-08-01T01:43:36.452Z,15.7
2016-08-01T01:43:46.448Z,15.7
2016-08-01T01:43:56.446Z,15.7
2016-08-01T01:44:06.439Z,15.7
2016-08-01T01:44:16.435Z,15.7
2016-08-01T01:44:26.429Z,15.7
2016-08-01T01:44:36.424Z,15.7
2016-08-01T01:44:46.421Z,15.7
2016-08-01T01:44:56.416Z,15.7
2016-08-01T01:45:06.412Z,15.6
2016-08-01T01:45:16.406Z,15.6
2016-08-01T01:45:26.402Z,15.6
2016-08-01T01:45:36.396Z,15.7
2016-08-01T01:45:46.390Z,15.7
2016-08-01T01:45:56.386Z,15.7
2016-08-01T01:46:06.383Z,15.7
2016-08-01T01:46:16.377Z,15.7
2016-08-01T01:46:26.372Z,15.6
2016-08-01T01:46:36.366Z,15.6
2016-08-01T01:46:46.360Z,15.6
2016-08-01T01:46:56.356Z,15.6
2016-08-01T01:47:06.352Z,15.6
2016-08-01T01:47:16.350Z,15.6
2016-08-01T01:47:26.341Z,15.7
2016-08-01T01:47:36.336Z,15.7
2016-08-01T01:47:46.331Z,15.6
2016-08-01T01:47:56.327Z,15.6
2016-08-01T01:48:06.322Z,15.6
2016-08-01T01:48:16.317Z,15.6
2016-08-01T01:48:26.313Z,15.6
2016-08-01T01:48:36.308Z,15.6
2016-08-01T01:48:46.299Z,15.6
2016-08-01T01:48:56.296Z,15.6
2016-08-01T01:49:06.293Z,15.7
2016-08-01T01:49:16.286Z,15.6
2016-08-01T01:49:26.281Z,15.6
2016-08-01T01:49:36.278Z,15.6
2016-08-01T01:49:46.275Z,15.7
2016-08-01T01:49:56.268Z,15.7
2016-08-01T01:50:06.265Z,15.6
2016-08-01T01:50:16.258Z,15.6
2016-08-01T01:50:26.253Z,15.6
2016-08-01T01:50:36.247Z,15.6
2016-08-01T01:50:46.243Z,15.7
2016-08-01T01:50:56.236Z,15.6
2016-08-01T01:51:06.235Z,15.6
2016-08-01T01:51:16.228Z,15.6
2016-08-01T01:51:26.222Z,15.6
2016-08-01T01:51:36.218Z,15.7
2016-08-01T01:51:46.212Z,15.7
2016-08-01T01:51:56.207Z,15.7
2016-08-01T01:52:06.205Z,15.7
2016-08-01T01:52:16.197Z,15.7
2016-08-01T01:52:26.195Z,15.7
2016-08-01T01:52:36.190Z,15.7
2016-08-01T01:52:46.184Z,15.7
2016-08-01T01:52:56.179Z,15.7
2016-08-01T01:53:06.175Z,15.7
2016-08-01T01:53:16.170Z,15.7
2016-08-01T01:53:26.166Z,15.7
2016-08-01T01:53:36.156Z,15.7
2016-08-01T01:53:46.153Z,15.7
2016-08-01T01:53:56.151Z,15.7
2016-08-01T01:54:06.142Z,15.7
2016-08-01T01:54:16.140Z,15.7
2016-08-01T01:54:26.133Z,15.7
2016-08-01T01:54:36.130Z,15.7
2016-08-01T01:54:46.126Z,15.7
2016-08-01T01:54:56.118Z,15.7
2016-08-01T01:55:06.113Z,15.7
2016-08-01T01:55:16.108Z,15.7
2016-08-01T01:55:26.107Z,15.7
2016-08-01T01:55:36.102Z,15.7
2016-08-01T01:55:46.097Z,15.7
2016-08-01T01:55:56.093Z,15.7
2016-08-01T01:56:06.083Z,15.7
2016-08-01T01:56:16.078Z,15.7
2016-08-01T01:56:26.075Z,15.7
2016-08-01T01:56:36.073Z,15.7
2016-08-01T01:56:46.061Z,15.7
2016-08-01T01:56:56.062Z,15.7
2016-08-01T01:57:06.056Z,15.7
2016-08-01T01:57:16.050Z,15.7
2016-08-01T01:57:26.045Z,15.7
2016-08-01T01:57:36.039Z,15.7
2016-08-01T01:57:46.033Z,15.7
2016-08-01T01:57:56.029Z,15.7
2016-08-01T01:58:06.023Z,15.7
2016-08-01T01:58:16.021Z,15.7
2016-08-01T01:58:26.016Z,15.7
2016-08-01T01:58:36.012Z,15.7
2016-08-01T01:58:46.009Z,15.7
2016-08-01T01:58:56.730Z,15.7
2016-08-01T01:59:05.998Z,15.7
2016-08-01T01:59:15.990Z,15.7
2016-08-01T01:59:25.985Z,15.7
2016-08-01T01:59:35.980Z,15.7
2016-08-01T01:59:45.977Z,15.7
2016-08-01T01:59:55.970Z,15.7
2016-08-01T02:00:05.967Z,15.7
2016-08-01T02:00:15.961Z,15.7
2016-08-01T02:00:25.968Z,15.7
2016-08-01T02:00:35.952Z,15.7
2016-08-01T02:00:45.944Z,15.7
2016-08-01T02:00:55.944Z,15.7
2016-08-01T02:01:05.936Z,15.7
2016-08-01T02:01:15.932Z,15.7
2016-08-01T02:01:25.928Z,15.7
2016-08-01T02:01:35.921Z,15.7
2016-08-01T02:01:45.918Z,15.7
2016-08-01T02:01:55.913Z,15.7
2016-08-01T02:02:05.905Z,15.7
2016-08-01T02:02:15.901Z,15.7
2016-08-01T02:02:26.628Z,15.7
2016-08-01T02:02:35.889Z,15.7
2016-08-01T02:02:45.885Z,15.7
2016-08-01T02:02:55.882Z,15.7
2016-08-01T02:03:05.879Z,15.8
2016-08-01T02:03:15.873Z,15.7
2016-08-01T02:03:25.867Z,15.7
2016-08-01T02:03:35.862Z,15.7
2016-08-01T02:03:45.858Z,15.7
2016-08-01T02:03:55.853Z,15.8
2016-08-01T02:04:05.848Z,15.8
2016-08-01T02:04:15.841Z,15.8
2016-08-01T02:04:25.840Z,15.8
2016-08-01T02:04:35.835Z,15.8
2016-08-01T02:04:45.828Z,15.8
2016-08-01T02:04:55.826Z,15.8
2016-08-01T02:05:05.819Z,15.8
2016-08-01T02:05:15.813Z,15.8
2016-08-01T02:05:25.809Z,15.8
2016-08-01T02:05:35.802Z,15.8
2016-08-01T02:05:45.797Z,15.7
2016-08-01T02:05:55.795Z,15.7
2016-08-01T02:06:05.789Z,15.7
2016-08-01T02:06:15.783Z,15.7
2016-08-01T02:06:25.778Z,15.7
2016-08-01T02:06:35.771Z,15.7
2016-08-01T02:06:45.770Z,15.7
2016-08-01T02:06:55.762Z,15.7
2016-08-01T02:07:05.759Z,15.7
2016-08-01T02:07:16.486Z,15.7
2016-08-01T02:07:25.751Z,15.7
2016-08-01T02:07:35.744Z,15.7
2016-08-01T02:07:45.738Z,15.7
2016-08-01T02:07:55.734Z,15.8
2016-08-01T02:08:05.730Z,15.7
2016-08-01T02:08:15.723Z,15.7
2016-08-01T02:08:25.719Z,15.7
2016-08-01T02:08:35.716Z,15.7
2016-08-01T02:08:45.709Z,15.7
2016-08-01T02:08:55.705Z,15.7
2016-08-01T02:09:05.702Z,15.7
2016-08-01T02:09:15.697Z,15.7
2016-08-01T02:09:25.690Z,15.7
2016-08-01T02:09:35.682Z,15.7
2016-08-01T02:09:45.680Z,15.7
2016-08-01T02:09:55.673Z,15.7
2016-08-01T02:10:05.670Z,15.7
2016-08-01T02:10:15.665Z,15.7
2016-08-01T02:10:25.658Z,15.7
2016-08-01T02:10:35.658Z,15.7
2016-08-01T02:10:45.651Z,15.7
2016-08-01T02:10:55.643Z,15.7
2016-08-01T02:11:05.639Z,15.7
2016-08-01T02:11:15.633Z,15.7
2016-08-01T02:11:25.628Z,15.7
2016-08-01T02:11:35.625Z,15.7
2016-08-01T02:11:46.348Z,15.7
2016-08-01T02:11:55.615Z,15.7
2016-08-01T02:12:05.612Z,15.7
2016-08-01T02:12:15.604Z,15.7
2016-08-01T02:12:25.599Z,15.7
2016-08-01T02:12:35.595Z,15.7
2016-08-01T02:12:45.588Z,15.7
2016-08-01T02:12:55.585Z,15.7
2016-08-01T02:13:05.582Z,15.7
2016-08-01T02:13:15.576Z,15.7
2016-08-01T02:13:25.569Z,15.7
2016-08-01T02:13:35.563Z,15.7
2016-08-01T02:13:45.561Z,15.7